FVWD weather

Wedza Airport
Wedza, Mashonaland East Province, Zimbabwe

Public forecast

Using degrees Celsius for public forecast. Weather courtesy of forecast.io.

Closest aviation weather report (METAR) to Wedza Airport

Closest report is Robert Gabriel Mugabe International Airport, 49.7 nm (92.1 km) NW. Retrieved 2019/11/12 04:00 UTC (43 minutes ago):

FVRG 120400Z 08010KT CAVOK 20/15 Q1018 NOSIG

Closest aviation forecast (TAF) to Wedza Airport

Closest forecast is Robert Gabriel Mugabe International Airport, 49.7 nm (92.1 km) NW. Retrieved 2019-11-12 00:00 UTC (5 hours ago):

TAF FVRG 112200Z 1200/1306 08006KT CAVOK BECMG 1207/1209 9999 SCT040 PROB30 TEMPO 1210/1216 8000 -TSRA FEW040CB BKN080 BECMG 1220/1222 CAVOK